Terminal Aerodrome Forecast
Issued by NWS Paducah, KY

Home | Current Version | Previous Version | Text Only | Print | Product List | Glossary On
Versions: 1 2 3 4 5 6 7 8 9 10 11 12 13 14 15 16 17 18 19 20 21 22 23 24
000
FTUS43 KPAH 281720
TAFEVV
TAF
KEVV 281720Z 2818/2918 33007KT P6SM SCT009 OVC015
      TEMPO 2818/2820 6SM HZ BKN009
     FM282000 36007KT P6SM BKN015
      TEMPO 2820/2823 SCT015 BKN030
     FM282300 03005KT P6SM BKN020
     FM291400 08008KT P6SM BKN015=

USA.gov is the U.S. government's official web portal to all federal, state and local government web resources and services.